Time;durP1;ratioP1;P1;durP2;ratioP2;P2;SDS_P1;SDS_P2;PMS_P1;PMS_P2;Temp;Humidity;BMP_temperature;BMP_pressure;BME280_temperature;BME280_humidity;BME280_pressure;Samples;Min_cycle;Max_cycle;Signal;HPM_P1;HPM_P2
2023/06/16 00:01:31;;;;;;;;;;;17.60;97.70;;;;;;5065163;28;19919;-76
2023/06/16 00:04:00;;;;;;;;;;;17.60;97.60;;;;;;5051839;28;19924;-75
2023/06/16 00:06:29;;;;;;;;;;;17.50;97.70;;;;;;5059394;28;19958;-75
2023/06/16 00:08:55;;;;;;;;;;;17.40;98.00;;;;;;5062670;28;19916;-75
2023/06/16 00:11:21;;;;;;;;;;;17.40;98.10;;;;;;5058573;28;20059;-75
2023/06/16 00:13:48;;;;;;;;;;;17.40;98.10;;;;;;5058307;28;20711;-75
2023/06/16 00:16:14;;;;;;;;;;;17.50;98.00;;;;;;5063602;28;19923;-76
2023/06/16 00:18:43;;;;;;;;;;;17.40;98.30;;;;;;5057254;28;19912;-76
2023/06/16 00:21:09;;;;;;;;;;;17.30;98.40;;;;;;5059854;28;19912;-76
2023/06/16 00:23:35;;;;;;;;;;;17.30;98.30;;;;;;5053640;28;20843;-76
2023/06/16 00:26:00;;;;;;;;;;;17.30;98.40;;;;;;5056334;28;19961;-74
2023/06/16 00:28:26;;;;;;;;;;;17.20;98.40;;;;;;5058356;28;20375;-74
2023/06/16 00:30:51;;;;;;;;;;;17.20;98.80;;;;;;5067233;28;20006;-75
2023/06/16 00:33:17;;;;;;;;;;;17.20;98.90;;;;;;5067445;28;19912;-74
2023/06/16 00:35:43;;;;;;;;;;;17.20;99.10;;;;;;5062372;28;19908;-75
2023/06/16 00:38:09;;;;;;;;;;;17.10;99.20;;;;;;5063256;28;20418;-76
2023/06/16 00:40:34;;;;;;;;;;;17.10;99.40;;;;;;5062638;28;19915;-74
2023/06/16 00:43:02;;;;;;;;;;;17.10;99.40;;;;;;5059745;28;20039;-75
2023/06/16 00:45:30;;;;;;;;;;;17.10;99.80;;;;;;5064749;28;19916;-75
2023/06/16 00:47:56;;;;;;;;;;;17.10;99.80;;;;;;5060636;28;19909;-74
2023/06/16 00:50:23;;;;;;;;;;;17.10;99.90;;;;;;5059810;28;19908;-75
2023/06/16 00:52:49;;;;;;;;;;;17.00;99.70;;;;;;5061311;28;19959;-74
2023/06/16 00:55:15;;;;;;;;;;;17.00;99.70;;;;;;5062123;28;19958;-75
2023/06/16 00:57:40;;;;;;;;;;;17.00;99.90;;;;;;5056269;28;19952;-75
2023/06/16 01:00:11;;;;;;;;;;;16.90;99.90;;;;;;5060774;28;20021;-75
2023/06/16 01:02:37;;;;;;;;;;;16.90;99.90;;;;;;5055348;28;20042;-75
2023/06/16 01:05:03;;;;;;;;;;;16.90;99.90;;;;;;5053170;28;19923;-74
2023/06/16 01:07:36;;;;;;;;;;;16.90;99.90;;;;;;5063586;28;19908;-75
2023/06/16 01:10:37;;;;;;;;;;;17.00;99.90;;;;;;5057299;28;20701;-75
2023/06/16 01:13:10;;;;;;;;;;;17.00;99.70;;;;;;4989419;28;19914;-74
2023/06/16 01:15:37;;;;;;;;;;;17.00;99.70;;;;;;5039992;28;19912;-73
2023/06/16 01:18:03;;;;;;;;;;;16.90;99.80;;;;;;5057806;28;19912;-75
2023/06/16 01:20:49;;;;;;;;;;;16.90;99.80;;;;;;5057561;28;19948;-74
2023/06/16 01:23:33;;;;;;;;;;;16.90;99.80;;;;;;5058595;28;19923;-74
2023/06/16 01:26:01;;;;;;;;;;;16.90;99.70;;;;;;5056624;28;20343;-75
2023/06/16 01:28:27;;;;;;;;;;;17.00;99.70;;;;;;5057429;28;19919;-75
2023/06/16 01:30:53;;;;;;;;;;;16.90;99.70;;;;;;5057178;28;19908;-73
2023/06/16 01:33:20;;;;;;;;;;;16.80;99.90;;;;;;5034971;28;19919;-75
2023/06/16 01:35:46;;;;;;;;;;;16.80;99.90;;;;;;5062084;28;19946;-74
2023/06/16 01:38:12;;;;;;;;;;;16.80;99.90;;;;;;5052470;28;20500;-75
2023/06/16 01:40:39;;;;;;;;;;;16.80;99.90;;;;;;5044547;28;19920;-75
2023/06/16 01:43:05;;;;;;;;;;;16.80;99.90;;;;;;5062919;28;19935;-75
2023/06/16 01:45:31;;;;;;;;;;;16.80;99.90;;;;;;5052503;28;19924;-76
2023/06/16 01:47:57;;;;;;;;;;;16.70;99.90;;;;;;5046332;28;19919;-75
2023/06/16 01:50:22;;;;;;;;;;;16.70;99.90;;;;;;5055057;28;19916;-76
2023/06/16 01:52:48;;;;;;;;;;;16.70;99.90;;;;;;5061440;28;19963;-75
2023/06/16 01:55:13;;;;;;;;;;;16.60;99.90;;;;;;5054918;28;20002;-74
2023/06/16 01:57:39;;;;;;;;;;;16.60;99.90;;;;;;5045328;28;19917;-76
2023/06/16 02:00:11;;;;;;;;;;;16.60;99.90;;;;;;5055638;28;19916;-74
2023/06/16 02:02:40;;;;;;;;;;;16.70;99.90;;;;;;5054825;28;19935;-75
2023/06/16 02:05:10;;;;;;;;;;;16.60;99.90;;;;;;5058996;28;20307;-74
2023/06/16 02:07:38;;;;;;;;;;;16.60;99.90;;;;;;5052708;28;19962;-75
2023/06/16 02:10:04;;;;;;;;;;;16.50;99.90;;;;;;5056101;28;19912;-73
2023/06/16 02:12:30;;;;;;;;;;;16.40;99.90;;;;;;5056751;28;19919;-75
2023/06/16 02:14:56;;;;;;;;;;;16.40;99.90;;;;;;5043675;28;19908;-75
2023/06/16 02:17:28;;;;;;;;;;;16.40;99.90;;;;;;5061568;28;20746;-75
2023/06/16 02:19:54;;;;;;;;;;;16.50;99.90;;;;;;5060949;28;19966;-75
2023/06/16 02:22:21;;;;;;;;;;;16.50;99.90;;;;;;5054857;28;19990;-75
2023/06/16 02:24:47;;;;;;;;;;;16.40;99.90;;;;;;5054409;28;19959;-75
2023/06/16 02:27:13;;;;;;;;;;;16.40;99.90;;;;;;5052304;28;19955;-75
2023/06/16 02:29:39;;;;;;;;;;;16.40;99.90;;;;;;5061667;28;19913;-75
2023/06/16 02:32:05;;;;;;;;;;;16.40;99.90;;;;;;5054646;28;19918;-74
2023/06/16 02:34:31;;;;;;;;;;;16.30;99.90;;;;;;5060301;28;19916;-75
2023/06/16 02:36:57;;;;;;;;;;;16.30;99.90;;;;;;5056990;28;19951;-75
2023/06/16 02:39:23;;;;;;;;;;;16.30;99.90;;;;;;5057281;28;19947;-74
2023/06/16 02:41:49;;;;;;;;;;;16.20;99.90;;;;;;5056459;28;19951;-75
2023/06/16 02:44:15;;;;;;;;;;;16.20;99.90;;;;;;5052013;28;20066;-75
2023/06/16 02:46:40;;;;;;;;;;;16.20;99.90;;;;;;5055806;28;19917;-75
2023/06/16 02:49:06;;;;;;;;;;;16.30;99.90;;;;;;5054220;28;19916;-75
2023/06/16 02:51:31;;;;;;;;;;;16.30;99.90;;;;;;5042025;28;19913;-75
2023/06/16 02:53:59;;;;;;;;;;;16.20;99.90;;;;;;5058933;28;19925;-75
2023/06/16 02:56:25;;;;;;;;;;;16.20;99.90;;;;;;5048920;28;20397;-75
2023/06/16 02:58:50;;;;;;;;;;;16.10;99.90;;;;;;5059618;28;20062;-74
2023/06/16 03:01:16;;;;;;;;;;;16.20;99.90;;;;;;5051758;28;19913;-75
2023/06/16 03:03:42;;;;;;;;;;;16.10;99.90;;;;;;5056566;28;19990;-74
2023/06/16 03:06:08;;;;;;;;;;;16.20;99.90;;;;;;5056510;28;19990;-76
2023/06/16 03:08:34;;;;;;;;;;;16.10;99.90;;;;;;5053077;28;20426;-75
2023/06/16 03:11:00;;;;;;;;;;;16.10;99.90;;;;;;5049071;28;20004;-75
2023/06/16 03:13:25;;;;;;;;;;;16.10;99.90;;;;;;5055284;28;20011;-75
2023/06/16 03:15:52;;;;;;;;;;;16.10;99.90;;;;;;5057240;28;19940;-75
2023/06/16 03:18:18;;;;;;;;;;;16.00;99.90;;;;;;5064733;28;19913;-75
2023/06/16 03:20:45;;;;;;;;;;;16.10;99.90;;;;;;5051057;28;20375;-74
2023/06/16 03:23:12;;;;;;;;;;;16.10;99.90;;;;;;5064144;28;19955;-74
2023/06/16 03:25:38;;;;;;;;;;;16.10;99.90;;;;;;5065776;28;20281;-76
2023/06/16 03:28:05;;;;;;;;;;;16.10;99.90;;;;;;5066025;28;19908;-74
2023/06/16 03:30:31;;;;;;;;;;;16.10;99.90;;;;;;5054599;28;19912;-74
2023/06/16 03:32:57;;;;;;;;;;;16.00;99.90;;;;;;5057434;28;20778;-75
2023/06/16 03:35:22;;;;;;;;;;;16.00;99.90;;;;;;5054335;28;19916;-75
2023/06/16 03:37:49;;;;;;;;;;;15.90;99.90;;;;;;5064105;28;19914;-75
2023/06/16 03:40:14;;;;;;;;;;;16.00;99.90;;;;;;5062069;28;19916;-74
2023/06/16 03:42:40;;;;;;;;;;;16.00;99.90;;;;;;5065584;28;20492;-76
2023/06/16 03:45:06;;;;;;;;;;;15.90;99.90;;;;;;5062489;28;19919;-74
2023/06/16 03:47:31;;;;;;;;;;;15.90;99.90;;;;;;5049807;28;19913;-74
2023/06/16 03:49:58;;;;;;;;;;;15.90;99.90;;;;;;5048057;28;20454;-74
2023/06/16 03:52:23;;;;;;;;;;;15.90;99.90;;;;;;5066907;28;19924;-75
2023/06/16 03:54:49;;;;;;;;;;;15.90;99.90;;;;;;5057842;28;19913;-74
2023/06/16 03:57:15;;;;;;;;;;;15.90;99.90;;;;;;5060355;28;20020;-75
2023/06/16 03:59:41;;;;;;;;;;;15.90;99.90;;;;;;5061775;28;20019;-74
2023/06/16 04:02:07;;;;;;;;;;;16.00;99.90;;;;;;5060324;28;19927;-74
2023/06/16 04:04:33;;;;;;;;;;;16.00;99.90;;;;;;5053642;28;20696;-75
2023/06/16 04:07:00;;;;;;;;;;;16.00;99.90;;;;;;5058600;28;20015;-75
2023/06/16 04:09:26;;;;;;;;;;;16.10;99.90;;;;;;5051195;28;19935;-74
2023/06/16 04:11:51;;;;;;;;;;;16.10;99.90;;;;;;5058085;28;20422;-75
2023/06/16 04:14:17;;;;;;;;;;;16.00;99.90;;;;;;5052857;28;20030;-75
2023/06/16 04:16:43;;;;;;;;;;;16.00;99.90;;;;;;5063421;28;20035;-74
2023/06/16 04:19:09;;;;;;;;;;;16.00;99.90;;;;;;5034242;28;19959;-74
2023/06/16 04:21:36;;;;;;;;;;;16.10;99.90;;;;;;5052537;28;19947;-74
2023/06/16 04:24:02;;;;;;;;;;;16.00;99.90;;;;;;5049576;28;20000;-74
2023/06/16 04:26:28;;;;;;;;;;;16.10;99.90;;;;;;5041332;28;19999;-75
2023/06/16 04:28:55;;;;;;;;;;;16.10;99.90;;;;;;5064471;28;20378;-74
2023/06/16 04:31:28;;;;;;;;;;;16.00;99.90;;;;;;5059829;28;19912;-75
2023/06/16 04:33:56;;;;;;;;;;;16.10;99.90;;;;;;5055513;28;19919;-75
2023/06/16 04:36:22;;;;;;;;;;;16.10;99.90;;;;;;5064023;28;20442;-75
2023/06/16 04:38:49;;;;;;;;;;;16.00;99.90;;;;;;5048938;28;19933;-74
2023/06/16 04:41:14;;;;;;;;;;;16.10;99.90;;;;;;5045523;28;19920;-74
2023/06/16 04:43:41;;;;;;;;;;;16.10;99.90;;;;;;5060954;28;19974;-73
2023/06/16 04:46:06;;;;;;;;;;;16.00;99.90;;;;;;5051650;28;19919;-74
2023/06/16 04:48:32;;;;;;;;;;;15.90;99.90;;;;;;5054596;28;19921;-73
2023/06/16 04:50:58;;;;;;;;;;;16.00;99.90;;;;;;5062171;28;19966;-73
2023/06/16 04:53:23;;;;;;;;;;;16.00;99.90;;;;;;5048384;28;19943;-72
2023/06/16 04:55:49;;;;;;;;;;;16.10;99.90;;;;;;5052191;28;19912;-76
2023/06/16 04:58:15;;;;;;;;;;;16.20;99.90;;;;;;5045856;28;19976;-74
2023/06/16 05:00:40;;;;;;;;;;;16.20;99.90;;;;;;5033783;28;19916;-74
2023/06/16 05:03:06;;;;;;;;;;;16.10;99.90;;;;;;5047025;28;19918;-74
2023/06/16 05:05:32;;;;;;;;;;;15.90;99.90;;;;;;5050431;28;19920;-75
2023/06/16 05:07:58;;;;;;;;;;;16.10;99.90;;;;;;5059741;28;20588;-76
2023/06/16 05:10:23;;;;;;;;;;;16.20;99.90;;;;;;5053244;28;19912;-73
2023/06/16 05:12:49;;;;;;;;;;;16.30;99.90;;;;;;5050247;28;19958;-73
2023/06/16 05:15:15;;;;;;;;;;;16.30;99.90;;;;;;5049947;28;19912;-73
2023/06/16 05:17:40;;;;;;;;;;;16.30;99.90;;;;;;5055417;28;20474;-74
2023/06/16 05:20:06;;;;;;;;;;;16.40;99.90;;;;;;5049274;28;19931;-74
2023/06/16 05:22:32;;;;;;;;;;;16.40;99.90;;;;;;5057171;28;19942;-76
2023/06/16 05:24:57;;;;;;;;;;;16.40;99.90;;;;;;5059211;28;19920;-76
2023/06/16 05:27:23;;;;;;;;;;;16.50;99.90;;;;;;5049035;28;19940;-73
2023/06/16 05:29:53;;;;;;;;;;;16.70;99.90;;;;;;5052555;28;19913;-77
2023/06/16 05:32:22;;;;;;;;;;;16.50;99.90;;;;;;5052686;28;19924;-76
2023/06/16 05:34:51;;;;;;;;;;;16.60;99.90;;;;;;5052371;28;19923;-75
2023/06/16 05:37:18;;;;;;;;;;;16.60;99.90;;;;;;5055835;28;19919;-75
2023/06/16 05:39:45;;;;;;;;;;;16.70;99.90;;;;;;5056776;28;19923;-72
2023/06/16 05:42:11;;;;;;;;;;;16.70;99.90;;;;;;5060813;28;20635;-73
2023/06/16 05:44:37;;;;;;;;;;;16.70;99.90;;;;;;5051078;28;20021;-73
2023/06/16 05:47:03;;;;;;;;;;;16.80;99.90;;;;;;5049779;28;20530;-73
2023/06/16 05:49:29;;;;;;;;;;;16.90;99.90;;;;;;5058837;28;19912;-74
2023/06/16 05:51:56;;;;;;;;;;;16.90;99.90;;;;;;5054199;28;20512;-72
2023/06/16 05:54:22;;;;;;;;;;;17.10;99.90;;;;;;5050051;28;19921;-72
2023/06/16 05:56:48;;;;;;;;;;;17.20;99.90;;;;;;5047923;28;19916;-74
2023/06/16 05:59:13;;;;;;;;;;;17.10;99.90;;;;;;5047537;28;19913;-72
2023/06/16 06:01:39;;;;;;;;;;;17.20;99.90;;;;;;5047794;28;19919;-73
2023/06/16 06:04:04;;;;;;;;;;;17.20;99.90;;;;;;5057652;28;20007;-73
2023/06/16 06:06:30;;;;;;;;;;;17.30;99.90;;;;;;5049671;28;20406;-75
2023/06/16 06:08:56;;;;;;;;;;;17.20;99.90;;;;;;5047719;28;19913;-74
2023/06/16 06:11:21;;;;;;;;;;;17.30;99.90;;;;;;5025031;28;19908;-72
2023/06/16 06:13:47;;;;;;;;;;;17.30;99.90;;;;;;5044305;28;19919;-74
2023/06/16 06:16:13;;;;;;;;;;;17.30;99.90;;;;;;5055587;28;20724;-74
2023/06/16 06:18:38;;;;;;;;;;;17.10;99.90;;;;;;5050313;28;20436;-73
2023/06/16 06:21:04;;;;;;;;;;;17.00;99.90;;;;;;5060841;28;19909;-73
2023/06/16 06:23:30;;;;;;;;;;;17.20;99.90;;;;;;5040339;28;19913;-73
2023/06/16 06:25:55;;;;;;;;;;;17.50;99.90;;;;;;5050175;28;19939;-73
2023/06/16 06:28:23;;;;;;;;;;;17.60;99.90;;;;;;5053753;28;19916;-73
2023/06/16 06:30:48;;;;;;;;;;;17.80;99.90;;;;;;5063092;28;19908;-73
2023/06/16 06:33:14;;;;;;;;;;;17.80;99.90;;;;;;5061384;28;19915;-72
2023/06/16 06:35:39;;;;;;;;;;;17.90;99.90;;;;;;5047983;28;19950;-74
2023/06/16 06:38:05;;;;;;;;;;;17.80;99.90;;;;;;5043078;28;19908;-72
2023/06/16 06:40:32;;;;;;;;;;;18.10;99.90;;;;;;5055710;28;20470;-72
2023/06/16 06:42:57;;;;;;;;;;;18.30;99.90;;;;;;5044823;28;19915;-75
2023/06/16 06:45:23;;;;;;;;;;;18.50;99.10;;;;;;5042187;28;20348;-74
2023/06/16 06:47:48;;;;;;;;;;;18.90;98.50;;;;;;5043101;28;20919;-74
2023/06/16 06:50:14;;;;;;;;;;;19.60;97.40;;;;;;5051851;28;19959;-72
2023/06/16 06:52:40;;;;;;;;;;;19.30;96.00;;;;;;5062437;28;19927;-73
2023/06/16 06:55:06;;;;;;;;;;;19.30;96.20;;;;;;5041240;28;19908;-73
2023/06/16 06:57:31;;;;;;;;;;;19.00;96.80;;;;;;5036216;28;19916;-73
2023/06/16 06:59:57;;;;;;;;;;;19.90;95.50;;;;;;5055940;28;19916;-73
2023/06/16 07:02:22;;;;;;;;;;;20.00;94.80;;;;;;5051052;28;19983;-72
2023/06/16 07:04:48;;;;;;;;;;;20.40;94.30;;;;;;5056486;28;19934;-73
2023/06/16 07:07:13;;;;;;;;;;;21.00;93.20;;;;;;5064148;28;19935;-72
2023/06/16 07:09:39;;;;;;;;;;;21.20;91.60;;;;;;5057898;28;19930;-75
2023/06/16 07:12:05;;;;;;;;;;;24.00;87.70;;;;;;5059528;28;19919;-74
2023/06/16 07:14:31;;;;;;;;;;;25.30;78.20;;;;;;5049067;28;20330;-73
2023/06/16 07:16:57;;;;;;;;;;;23.80;81.30;;;;;;5056359;28;20698;-74
2023/06/16 07:19:26;;;;;;;;;;;23.80;81.30;;;;;;5060073;28;20375;-72
2023/06/16 07:21:52;;;;;;;;;;;23.50;82.30;;;;;;5060138;28;19912;-73
2023/06/16 07:24:17;;;;;;;;;;;24.50;77.90;;;;;;5055424;28;19923;-75
2023/06/16 07:26:43;;;;;;;;;;;26.90;71.60;;;;;;5058801;28;19909;-73
2023/06/16 07:29:08;;;;;;;;;;;28.10;69.20;;;;;;5068425;28;20369;-73
2023/06/16 07:31:34;;;;;;;;;;;28.50;66.10;;;;;;5078401;28;20003;-72
2023/06/16 07:33:59;;;;;;;;;;;27.70;66.40;;;;;;5068353;28;19911;-73
2023/06/16 07:36:25;;;;;;;;;;;27.50;67.10;;;;;;5067564;28;19908;-73
2023/06/16 07:38:51;;;;;;;;;;;27.20;68.10;;;;;;5060923;28;19916;-73
2023/06/16 07:41:16;;;;;;;;;;;27.60;65.50;;;;;;5062346;28;19915;-74
2023/06/16 07:43:42;;;;;;;;;;;29.80;62.10;;;;;;5063119;28;19992;-74
2023/06/16 07:46:08;;;;;;;;;;;29.80;60.60;;;;;;5064482;28;19915;-76
2023/06/16 07:48:33;;;;;;;;;;;30.30;58.20;;;;;;5062011;28;19916;-74
2023/06/16 07:50:59;;;;;;;;;;;30.90;57.40;;;;;;5064487;28;19908;-76
2023/06/16 07:53:24;;;;;;;;;;;30.90;56.40;;;;;;5044802;28;19920;-72
2023/06/16 07:55:51;;;;;;;;;;;31.20;57.90;;;;;;5049291;28;19953;-72
2023/06/16 07:58:16;;;;;;;;;;;30.90;57.70;;;;;;5054011;28;20393;-76
2023/06/16 08:00:42;;;;;;;;;;;31.10;56.60;;;;;;5056244;28;19918;-76
2023/06/16 08:03:07;;;;;;;;;;;31.20;56.00;;;;;;5054000;28;19958;-77
2023/06/16 08:05:33;;;;;;;;;;;31.80;55.10;;;;;;5059854;28;19948;-74
2023/06/16 08:07:58;;;;;;;;;;;32.00;55.40;;;;;;5056517;28;20031;-73
2023/06/16 08:10:25;;;;;;;;;;;31.40;55.70;;;;;;5054897;28;19920;-73
2023/06/16 08:12:51;;;;;;;;;;;32.30;55.30;;;;;;5056496;28;19913;-74
2023/06/16 08:15:17;;;;;;;;;;;32.40;54.10;;;;;;5056841;28;19913;-74
2023/06/16 08:17:43;;;;;;;;;;;33.60;53.70;;;;;;5056842;28;19970;-75
2023/06/16 08:20:09;;;;;;;;;;;33.70;50.80;;;;;;5048986;28;19916;-74
2023/06/16 08:22:34;;;;;;;;;;;33.80;51.50;;;;;;5041957;28;19944;-73
2023/06/16 08:25:01;;;;;;;;;;;33.80;51.80;;;;;;5054167;28;20033;-77
2023/06/16 08:27:26;;;;;;;;;;;33.90;51.30;;;;;;5054305;28;20028;-76
2023/06/16 08:29:52;;;;;;;;;;;33.90;51.60;;;;;;5056949;28;20461;-74
2023/06/16 08:32:18;;;;;;;;;;;33.40;52.90;;;;;;5061101;28;19912;-76
2023/06/16 08:34:43;;;;;;;;;;;34.60;50.80;;;;;;5053343;28;19909;-74
2023/06/16 08:37:09;;;;;;;;;;;34.90;49.20;;;;;;5058289;28;20007;-74
2023/06/16 08:39:35;;;;;;;;;;;35.00;48.90;;;;;;5055399;28;19948;-74
2023/06/16 08:42:01;;;;;;;;;;;35.10;48.90;;;;;;5057555;28;20125;-75
2023/06/16 08:44:26;;;;;;;;;;;36.10;50.00;;;;;;5059946;28;20454;-77
2023/06/16 08:46:52;;;;;;;;;;;36.00;48.80;;;;;;5053116;28;20599;-74
2023/06/16 08:49:18;;;;;;;;;;;35.90;47.90;;;;;;5060092;28;20685;-76
2023/06/16 08:51:47;;;;;;;;;;;35.70;49.00;;;;;;5056020;28;19912;-72
2023/06/16 08:54:13;;;;;;;;;;;36.30;50.00;;;;;;5052451;28;19933;-74
2023/06/16 08:56:39;;;;;;;;;;;36.80;46.60;;;;;;5049750;28;19912;-73
2023/06/16 08:59:05;;;;;;;;;;;37.40;47.70;;;;;;5056299;28;19912;-73
2023/06/16 09:01:33;;;;;;;;;;;37.90;47.50;;;;;;5062787;28;19942;-73
2023/06/16 09:03:59;;;;;;;;;;;37.40;47.60;;;;;;5061465;28;19920;-75
2023/06/16 09:06:25;;;;;;;;;;;37.20;46.50;;;;;;5062384;28;19915;-76
2023/06/16 09:08:52;;;;;;;;;;;34.70;48.80;;;;;;5058540;28;20294;-73
2023/06/16 09:11:23;;;;;;;;;;;34.40;48.30;;;;;;5063169;28;20015;-75
2023/06/16 09:13:49;;;;;;;;;;;35.70;48.20;;;;;;5062117;28;19913;-75
2023/06/16 09:16:16;;;;;;;;;;;31.50;53.60;;;;;;5063557;28;20010;-73
2023/06/16 09:18:44;;;;;;;;;;;29.90;58.30;;;;;;5061790;28;19919;-72
2023/06/16 09:21:11;;;;;;;;;;;29.80;58.30;;;;;;5062483;28;19917;-72
2023/06/16 09:23:38;;;;;;;;;;;32.30;56.40;;;;;;5055341;28;20381;-74
2023/06/16 09:26:13;;;;;;;;;;;32.90;55.00;;;;;;5054831;28;19923;-73
2023/06/16 09:28:39;;;;;;;;;;;33.80;53.00;;;;;;5062292;28;19925;-74
2023/06/16 09:31:06;;;;;;;;;;;33.10;54.20;;;;;;5064693;28;19908;-72
2023/06/16 09:33:31;;;;;;;;;;;33.20;53.90;;;;;;5062639;28;19908;-73
2023/06/16 09:36:00;;;;;;;;;;;32.70;53.90;;;;;;5062530;28;19909;-73
2023/06/16 09:38:27;;;;;;;;;;;35.10;53.20;;;;;;5059845;28;19916;-73
2023/06/16 09:40:54;;;;;;;;;;;33.60;54.00;;;;;;5058751;28;19915;-73
2023/06/16 09:43:19;;;;;;;;;;;31.90;53.00;;;;;;5062882;28;20411;-73
2023/06/16 09:45:54;;;;;;;;;;;34.40;54.50;;;;;;5061000;28;19931;-73
2023/06/16 09:48:19;;;;;;;;;;;36.60;51.30;;;;;;5059763;28;19909;-74
2023/06/16 09:50:45;;;;;;;;;;;35.30;49.00;;;;;;5062394;28;19915;-73
2023/06/16 09:53:13;;;;;;;;;;;36.90;47.60;;;;;;5062021;28;20331;-74
2023/06/16 09:55:39;;;;;;;;;;;38.40;47.20;;;;;;5059527;28;19913;-73
2023/06/16 09:58:05;;;;;;;;;;;37.90;46.30;;;;;;5062041;28;19912;-73
2023/06/16 10:00:33;;;;;;;;;;;34.70;50.40;;;;;;5061632;28;19920;-74
2023/06/16 10:02:58;;;;;;;;;;;33.10;52.00;;;;;;5059932;28;19944;-74
2023/06/16 10:05:25;;;;;;;;;;;35.90;50.30;;;;;;5060413;28;19951;-76
2023/06/16 10:07:52;;;;;;;;;;;36.80;45.20;;;;;;5052337;28;19904;-74
2023/06/16 10:10:19;;;;;;;;;;;37.00;45.90;;;;;;5055983;28;19932;-76
2023/06/16 10:12:46;;;;;;;;;;;38.20;45.40;;;;;;5052360;28;19954;-73
2023/06/16 10:15:13;;;;;;;;;;;38.20;46.60;;;;;;5060657;28;19916;-72
2023/06/16 10:17:40;;;;;;;;;;;37.40;45.80;;;;;;5059865;28;20378;-73
2023/06/16 10:20:09;;;;;;;;;;;36.30;47.00;;;;;;5061728;28;19957;-71
2023/06/16 10:22:35;;;;;;;;;;;36.80;48.30;;;;;;5061660;28;20382;-72
2023/06/16 10:25:01;;;;;;;;;;;37.60;47.40;;;;;;5058575;28;19965;-74
2023/06/16 10:27:27;;;;;;;;;;;38.10;47.70;;;;;;5056799;28;19931;-74
2023/06/16 10:29:53;;;;;;;;;;;37.70;45.80;;;;;;5042134;28;20288;-76
2023/06/16 10:32:19;;;;;;;;;;;36.20;46.30;;;;;;5068446;28;20026;-73
2023/06/16 10:34:46;;;;;;;;;;;37.40;46.40;;;;;;5059888;28;19915;-73
2023/06/16 10:37:13;;;;;;;;;;;37.60;45.90;;;;;;5058620;28;19908;-73
2023/06/16 10:39:43;;;;;;;;;;;36.60;49.50;;;;;;5053184;28;19915;-73
2023/06/16 10:42:13;;;;;;;;;;;37.00;48.60;;;;;;5058303;28;20011;-74
2023/06/16 10:44:38;;;;;;;;;;;37.30;48.00;;;;;;5053488;28;19916;-74
2023/06/16 10:47:04;;;;;;;;;;;35.00;48.40;;;;;;5044533;28;20367;-72
2023/06/16 10:49:30;;;;;;;;;;;34.30;51.00;;;;;;5058043;28;20544;-74
2023/06/16 10:51:57;;;;;;;;;;;33.60;50.20;;;;;;5059125;28;19915;-73
2023/06/16 10:54:32;;;;;;;;;;;32.60;52.00;;;;;;5052978;28;19926;-76
2023/06/16 10:57:08;;;;;;;;;;;31.60;57.20;;;;;;5051145;28;20375;-75
2023/06/16 10:59:52;;;;;;;;;;;31.00;57.50;;;;;;5062612;28;20012;-77
2023/06/16 11:02:19;;;;;;;;;;;30.60;58.40;;;;;;5062174;28;19912;-75
2023/06/16 11:05:04;;;;;;;;;;;30.80;57.50;;;;;;5061771;28;19931;-72
2023/06/16 11:07:30;;;;;;;;;;;30.80;57.90;;;;;;5060942;28;19916;-72
2023/06/16 11:09:58;;;;;;;;;;;30.80;59.10;;;;;;5062781;28;20509;-73
2023/06/16 11:12:24;;;;;;;;;;;30.30;58.30;;;;;;5062180;28;19948;-74
2023/06/16 11:14:51;;;;;;;;;;;30.10;56.00;;;;;;5050504;28;20041;-75
2023/06/16 11:17:22;;;;;;;;;;;29.30;54.50;;;;;;5060181;28;19909;-73
2023/06/16 11:19:51;;;;;;;;;;;29.30;55.50;;;;;;5060267;28;19908;-76
2023/06/16 11:22:25;;;;;;;;;;;29.70;55.30;;;;;;5059288;28;20011;-72
2023/06/16 11:24:51;;;;;;;;;;;29.30;56.90;;;;;;5058128;28;20031;-73
2023/06/16 11:27:16;;;;;;;;;;;29.80;59.30;;;;;;5053129;28;19915;-73
2023/06/16 11:29:42;;;;;;;;;;;29.80;60.30;;;;;;5057529;28;20005;-75
2023/06/16 11:32:08;;;;;;;;;;;29.00;59.20;;;;;;5065936;28;19948;-76
2023/06/16 11:34:35;;;;;;;;;;;29.10;60.20;;;;;;5049781;28;19908;-76
2023/06/16 11:37:01;;;;;;;;;;;28.40;56.00;;;;;;5059957;28;19943;-73
2023/06/16 11:39:26;;;;;;;;;;;28.70;58.80;;;;;;5065822;28;20604;-73
2023/06/16 11:41:56;;;;;;;;;;;28.80;56.20;;;;;;5042862;28;19962;-73
2023/06/16 11:44:21;;;;;;;;;;;28.50;62.40;;;;;;5058164;28;20467;-73
2023/06/16 11:46:47;;;;;;;;;;;28.50;62.60;;;;;;5057589;28;20438;-74
2023/06/16 11:49:12;;;;;;;;;;;28.80;63.10;;;;;;5060028;28;19955;-74
2023/06/16 11:51:38;;;;;;;;;;;28.60;59.80;;;;;;5064559;28;19912;-75
2023/06/16 11:54:03;;;;;;;;;;;28.40;56.90;;;;;;5058813;28;19920;-74
2023/06/16 11:56:30;;;;;;;;;;;28.30;57.10;;;;;;5065290;28;19912;-76
2023/06/16 11:59:01;;;;;;;;;;;28.10;57.40;;;;;;5058792;28;19951;-73
2023/06/16 12:01:26;;;;;;;;;;;28.00;55.40;;;;;;5047112;28;20654;-74
2023/06/16 12:03:52;;;;;;;;;;;28.10;59.40;;;;;;5060540;28;20003;-74
2023/06/16 12:06:19;;;;;;;;;;;27.70;55.30;;;;;;5064473;28;19909;-75
2023/06/16 12:08:51;;;;;;;;;;;27.40;58.10;;;;;;5062993;28;20450;-74
2023/06/16 12:11:21;;;;;;;;;;;27.80;59.70;;;;;;5037086;28;19908;-73
2023/06/16 12:13:47;;;;;;;;;;;27.60;56.90;;;;;;5063810;28;20562;-73
2023/06/16 12:16:13;;;;;;;;;;;27.80;60.00;;;;;;5063908;28;19908;-73
2023/06/16 12:18:38;;;;;;;;;;;27.70;60.70;;;;;;5053980;28;20566;-76
2023/06/16 12:21:14;;;;;;;;;;;27.50;59.70;;;;;;5065333;28;19916;-73
2023/06/16 12:23:40;;;;;;;;;;;27.90;61.70;;;;;;5062155;28;19916;-75
2023/06/16 12:26:05;;;;;;;;;;;27.70;58.40;;;;;;5056921;28;19924;-73
2023/06/16 12:28:31;;;;;;;;;;;27.70;63.20;;;;;;5061451;28;19911;-74
2023/06/16 12:31:00;;;;;;;;;;;27.50;64.20;;;;;;5065951;28;19915;-72
2023/06/16 12:33:26;;;;;;;;;;;27.40;62.70;;;;;;5053968;28;19912;-72
2023/06/16 12:35:52;;;;;;;;;;;27.50;59.70;;;;;;5064513;28;19912;-74
2023/06/16 12:38:29;;;;;;;;;;;27.60;59.70;;;;;;5056296;28;20516;-75
2023/06/16 12:40:54;;;;;;;;;;;27.80;65.60;;;;;;5058884;28;20003;-73
2023/06/16 12:43:23;;;;;;;;;;;27.20;62.20;;;;;;5058524;28;20003;-73
2023/06/16 12:45:49;;;;;;;;;;;27.20;62.60;;;;;;5053372;28;19916;-74
2023/06/16 12:48:15;;;;;;;;;;;27.50;64.50;;;;;;5058645;28;19915;-73
2023/06/16 12:50:40;;;;;;;;;;;27.60;63.90;;;;;;5056904;28;19912;-72
2023/06/16 12:53:06;;;;;;;;;;;27.70;62.80;;;;;;5057063;28;19920;-73
2023/06/16 12:55:31;;;;;;;;;;;27.40;63.70;;;;;;5061803;28;19916;-74
2023/06/16 12:57:57;;;;;;;;;;;27.40;61.10;;;;;;5063318;28;19954;-73
2023/06/16 13:00:23;;;;;;;;;;;27.30;60.20;;;;;;5060695;28;20007;-74
2023/06/16 13:02:48;;;;;;;;;;;27.30;61.50;;;;;;5063378;28;20017;-75
2023/06/16 13:05:14;;;;;;;;;;;27.40;61.40;;;;;;5063750;28;19916;-74
2023/06/16 13:07:40;;;;;;;;;;;27.50;63.20;;;;;;5062619;28;20653;-73
2023/06/16 13:10:05;;;;;;;;;;;27.50;63.10;;;;;;5063162;28;19908;-73
2023/06/16 13:12:31;;;;;;;;;;;27.50;62.10;;;;;;5063698;28;20001;-72
2023/06/16 13:14:56;;;;;;;;;;;27.20;59.10;;;;;;5063649;28;20435;-73
2023/06/16 13:17:22;;;;;;;;;;;27.10;61.50;;;;;;5062767;28;20477;-73
2023/06/16 13:19:47;;;;;;;;;;;27.00;64.30;;;;;;5063419;28;20627;-74
2023/06/16 13:22:13;;;;;;;;;;;27.00;61.30;;;;;;5060713;28;20427;-73
2023/06/16 13:24:38;;;;;;;;;;;27.10;62.50;;;;;;5062346;28;20477;-74
2023/06/16 13:27:04;;;;;;;;;;;27.10;60.30;;;;;;5053267;28;19908;-72
2023/06/16 13:29:30;;;;;;;;;;;27.10;62.70;;;;;;5061871;28;19912;-74
2023/06/16 13:31:55;;;;;;;;;;;26.90;57.70;;;;;;5069377;28;20367;-72
2023/06/16 13:34:21;;;;;;;;;;;26.90;60.40;;;;;;5061146;28;20368;-75
2023/06/16 13:36:47;;;;;;;;;;;26.80;59.60;;;;;;5048067;28;19916;-74
2023/06/16 13:39:14;;;;;;;;;;;26.70;59.00;;;;;;5057923;28;19955;-73
2023/06/16 13:41:40;;;;;;;;;;;26.70;59.40;;;;;;5055332;28;20015;-74
2023/06/16 13:44:05;;;;;;;;;;;26.70;59.70;;;;;;5057640;28;19904;-73
2023/06/16 13:46:31;;;;;;;;;;;26.70;59.40;;;;;;5058574;28;20330;-72
2023/06/16 13:48:57;;;;;;;;;;;26.50;56.50;;;;;;5063779;28;19958;-73
2023/06/16 13:51:22;;;;;;;;;;;26.70;62.20;;;;;;5057033;28;19908;-74
2023/06/16 13:53:48;;;;;;;;;;;26.70;60.00;;;;;;5063685;28;19920;-75
2023/06/16 13:56:13;;;;;;;;;;;26.70;60.70;;;;;;5057261;28;19921;-74
2023/06/16 13:58:39;;;;;;;;;;;26.60;62.00;;;;;;5060531;28;20458;-74
2023/06/16 14:01:05;;;;;;;;;;;26.50;60.60;;;;;;5061974;28;20634;-73
2023/06/16 14:03:31;;;;;;;;;;;26.50;63.20;;;;;;5062993;28;20650;-73
2023/06/16 14:05:56;;;;;;;;;;;26.40;58.80;;;;;;5062519;28;19923;-72
2023/06/16 14:08:22;;;;;;;;;;;26.40;61.70;;;;;;5061638;28;20907;-74
2023/06/16 14:10:49;;;;;;;;;;;26.40;61.70;;;;;;5061928;28;19960;-76
2023/06/16 14:13:16;;;;;;;;;;;26.30;58.40;;;;;;5062716;28;20011;-73